Main page
METAR-TAF:

METAR-TAF

Airports :

Harbin Taiping International Airport

Harbin, China

latitude: 45-45N, longitude: 126-46E, elevation: 143 m

Current weather observation

The report was made 1 hour and 10 minutes ago, at 07:00 UTC
Wind 4 kt from the South/Southeast, varying between East/Southeast and South/Southwest
Temperature 29°C
Humidity 66%
Pressure 999 hPa
Visibility 10 km or more
no clouds below 1500 m and no cumulonimbus

METAR: ZYHB 300700Z 16002MPS 110V200 CAVOK 29/22 Q0999 NOSIG

Time: 16:10 (08:10 UTC)

Forecast

The report was made 5 hours and 7 minutes ago, at 03:03 UTC
Forecast valid from 30 at 06 UTC to 31 at 06 UTC
Wind 8 kt from the East
Visibility: 6000 m
Scattered clouds at a height of 2600 ft
Temporary
from 30 at 06 UTC to 30 at 12 UTC
Few clouds at a height of 2000 ft, Cumulonimbus.
Broken clouds at a height of 2300 ft

TAF: ZYHB 300303Z 3006/3106 09004MPS 6000 SCT026 TX30/3006Z TN22/3021Z TEMPO 3006/3012 FEW020CB BKN023

Weather observations and forecasts of more than 4000 airports (METAR and TAF reports).

The available stations are represented by yellow and red dots on the map.

Hover mouse over dot to see the name of the station.

Then click to see weather observations and forecasts.

To change the map : click on the green buttons with a black cross to zoom in, on the green button with a dash to zoom out, or on the green arrows for adjacent maps.


METAR-TAF: